Time;durP1;ratioP1;P1;durP2;ratioP2;P2;SDS_P1;SDS_P2;PMS_P1;PMS_P2;Temp;Humidity;BMP_temperature;BMP_pressure;BME280_temperature;BME280_humidity;BME280_pressure;Samples;Min_cycle;Max_cycle;Signal;HPM_P1;HPM_P2
2023/07/17 00:05:34;;;;;;;7.05;2.88;;;19.10;99.90;;;;;;12507001;28;20140;-34
2023/07/17 00:11:36;;;;;;;6.35;3.05;;;19.20;99.90;;;;;;12522082;28;20056;-35
2023/07/17 00:17:38;;;;;;;9.50;3.22;;;19.30;99.90;;;;;;12547347;28;20378;-35
2023/07/17 00:23:41;;;;;;;7.20;3.58;;;19.00;99.90;;;;;;12520284;28;20052;-35
2023/07/17 00:29:44;;;;;;;5.47;3.00;;;18.90;99.90;;;;;;12513317;28;20083;-35
2023/07/17 00:35:46;;;;;;;8.57;3.28;;;18.50;99.90;;;;;;12514283;28;20057;-35
2023/07/17 00:41:50;;;;;;;9.93;3.10;;;18.30;99.90;;;;;;12512015;28;20077;-35
2023/07/17 00:47:52;;;;;;;6.18;3.08;;;18.20;99.90;;;;;;12521376;28;20050;-34
2023/07/17 00:53:55;;;;;;;6.25;3.35;;;18.10;99.90;;;;;;12508841;28;20048;-35
2023/07/17 00:59:57;;;;;;;7.97;3.28;;;18.40;99.90;;;;;;12516315;28;20066;-35
2023/07/17 01:05:59;;;;;;;5.20;3.00;;;18.40;99.90;;;;;;12523295;28;20068;-35
2023/07/17 01:12:01;;;;;;;7.50;3.42;;;18.00;99.90;;;;;;12517338;28;20524;-35
2023/07/17 01:18:03;;;;;;;8.02;3.40;;;17.90;99.90;;;;;;12527074;28;20053;-35
2023/07/17 01:24:05;;;;;;;6.10;3.20;;;17.60;99.90;;;;;;12514619;28;20179;-35
2023/07/17 01:30:07;;;;;;;5.05;3.17;;;17.50;99.90;;;;;;12516481;28;20049;-35
2023/07/17 01:36:11;;;;;;;6.75;2.83;;;17.40;99.90;;;;;;12488322;28;20056;-35
2023/07/17 01:42:13;;;;;;;7.35;3.55;;;17.40;99.90;;;;;;12516115;28;20041;-35
2023/07/17 01:48:17;;;;;;;8.05;2.75;;;17.40;99.90;;;;;;12519774;28;20452;-35
2023/07/17 01:54:18;;;;;;;;;;;17.60;99.90;;;;;;12498846;28;20045;-35
2023/07/17 02:00:22;;;;;;;6.97;3.25;;;17.70;99.90;;;;;;12505412;28;20004;-35
2023/07/17 02:06:23;;;;;;;8.27;3.40;;;17.70;99.90;;;;;;12518575;28;20048;-35
2023/07/17 02:12:25;;;;;;;10.68;3.90;;;17.50;99.90;;;;;;12513454;28;20451;-35
2023/07/17 02:18:30;;;;;;;7.20;3.65;;;17.60;99.90;;;;;;12517683;28;20052;-35
2023/07/17 02:24:31;;;;;;;7.18;3.03;;;17.70;99.90;;;;;;12507568;28;20057;-35
2023/07/17 02:30:33;;;;;;;6.97;3.55;;;17.80;99.90;;;;;;12533642;28;20055;-35
2023/07/17 02:36:37;;;;;;;7.72;3.00;;;17.90;99.90;;;;;;12521362;28;20073;-35
2023/07/17 02:42:39;;;;;;;8.73;3.20;;;17.60;99.90;;;;;;12530510;28;20052;-35
2023/07/17 02:48:41;;;;;;;8.10;2.75;;;17.40;99.90;;;;;;12523570;28;20060;-35
2023/07/17 02:54:43;;;;;;;6.32;2.47;;;17.10;99.90;;;;;;12517982;28;20045;-35
2023/07/17 03:00:46;;;;;;;6.70;3.13;;;17.00;99.90;;;;;;12526303;28;20040;-36
2023/07/17 03:06:48;;;;;;;6.65;3.00;;;17.00;99.90;;;;;;12524770;28;20438;-35
2023/07/17 03:12:50;;;;;;;8.23;3.50;;;17.00;99.90;;;;;;12525888;28;20102;-34
2023/07/17 03:18:52;;;;;;;6.85;3.13;;;17.10;99.90;;;;;;12509657;28;20071;-35
2023/07/17 03:24:55;;;;;;;8.10;3.13;;;17.10;99.90;;;;;;12524957;28;20036;-35
2023/07/17 03:30:56;;;;;;;8.82;3.45;;;16.90;99.90;;;;;;12526511;28;20042;-35
2023/07/17 03:36:58;;;;;;;8.63;3.20;;;16.80;99.90;;;;;;12547648;28;20068;-35
2023/07/17 03:43:00;;;;;;;9.13;3.35;;;16.40;99.90;;;;;;12529466;28;20052;-35
2023/07/17 03:49:03;;;;;;;7.63;3.42;;;16.10;99.90;;;;;;12513190;28;20045;-35
2023/07/17 03:55:05;;;;;;;9.88;3.55;;;15.90;99.90;;;;;;12508050;28;20045;-35
2023/07/17 04:01:07;;;;;;;12.68;3.38;;;15.80;99.90;;;;;;12509534;28;20049;-36
2023/07/17 04:07:09;;;;;;;10.35;3.33;;;15.80;99.90;;;;;;12521307;28;20105;-35
2023/07/17 04:13:10;;;;;;;9.55;3.17;;;15.80;99.90;;;;;;12533342;28;20052;-35
2023/07/17 04:19:12;;;;;;;8.32;2.95;;;15.70;99.90;;;;;;12513613;28;20450;-35
2023/07/17 04:25:14;;;;;;;6.57;2.83;;;15.60;99.90;;;;;;12513986;28;20053;-35
2023/07/17 04:31:16;;;;;;;6.15;2.95;;;15.70;99.90;;;;;;12506377;28;20049;-35
2023/07/17 04:37:19;;;;;;;6.60;3.13;;;15.90;99.90;;;;;;12516738;28;20113;-35
2023/07/17 04:43:21;;;;;;;7.40;3.28;;;16.20;99.90;;;;;;12525996;28;20033;-35
2023/07/17 04:49:23;;;;;;;4.82;2.80;;;16.10;99.90;;;;;;12514420;28;20076;-35
2023/07/17 04:55:25;;;;;;;7.85;3.45;;;16.20;99.90;;;;;;12516868;28;20045;-34
2023/07/17 05:01:27;;;;;;;6.05;3.05;;;16.20;99.90;;;;;;12503275;28;20080;-35
2023/07/17 05:07:29;;;;;;;9.15;3.10;;;16.20;99.90;;;;;;12516762;28;20048;-35
2023/07/17 05:13:31;;;;;;;6.75;2.83;;;16.20;99.90;;;;;;12506533;28;20044;-35
2023/07/17 05:19:33;;;;;;;7.45;3.10;;;16.30;99.90;;;;;;12512899;28;20057;-35
2023/07/17 05:25:35;;;;;;;8.77;3.92;;;16.30;99.90;;;;;;12495434;28;20045;-35
2023/07/17 05:31:37;;;;;;;8.60;3.25;;;16.30;99.90;;;;;;12518944;28;20053;-35
2023/07/17 05:37:38;;;;;;;9.43;2.90;;;16.40;99.90;;;;;;12508145;28;20080;-35
2023/07/17 05:43:40;;;;;;;7.90;3.03;;;16.60;99.90;;;;;;12497229;28;20076;-35
2023/07/17 05:49:42;;;;;;;5.30;2.72;;;16.90;99.90;;;;;;12516167;28;20075;-35
2023/07/17 05:55:44;;;;;;;5.10;2.58;;;17.40;99.90;;;;;;12513245;28;20064;-35
2023/07/17 06:01:46;;;;;;;5.45;2.70;;;17.10;99.90;;;;;;12524375;28;20063;-34
2023/07/17 06:07:48;;;;;;;9.00;3.20;;;17.00;99.90;;;;;;12525188;28;20048;-35
2023/07/17 06:13:50;;;;;;;8.27;2.63;;;17.00;99.90;;;;;;12509389;28;20110;-35
2023/07/17 06:19:52;;;;;;;6.50;2.83;;;17.10;99.90;;;;;;12507297;28;20044;-35
2023/07/17 06:25:54;;;;;;;7.25;3.08;;;17.10;99.90;;;;;;12510754;28;20088;-35
2023/07/17 06:31:56;;;;;;;6.00;2.58;;;17.10;99.90;;;;;;12527637;28;20163;-35
2023/07/17 06:37:58;;;;;;;8.00;2.60;;;17.40;99.90;;;;;;12513491;28;20520;-34
2023/07/17 06:44:00;;;;;;;7.95;3.25;;;17.50;99.90;;;;;;12514327;28;20180;-34
2023/07/17 06:50:02;;;;;;;7.03;2.72;;;17.60;99.90;;;;;;12488343;28;20135;-34
2023/07/17 06:56:04;;;;;;;6.38;2.60;;;17.70;99.90;;;;;;12491718;28;20052;-35
2023/07/17 07:02:06;;;;;;;7.97;2.90;;;17.80;99.90;;;;;;12521929;28;20490;-33
2023/07/17 07:08:08;;;;;;;5.18;2.45;;;18.00;99.90;;;;;;12510221;28;20049;-36
2023/07/17 07:14:10;;;;;;;8.20;2.45;;;17.90;99.90;;;;;;12514448;28;20045;-34
2023/07/17 07:20:12;;;;;;;6.00;2.40;;;18.20;99.90;;;;;;12505034;28;20461;-34
2023/07/17 07:26:14;;;;;;;9.30;2.55;;;18.20;99.90;;;;;;12489545;28;20037;-35
2023/07/17 07:32:16;;;;;;;7.70;2.83;;;18.20;99.90;;;;;;12506704;28;20432;-35
2023/07/17 07:38:18;;;;;;;7.25;2.70;;;18.30;99.90;;;;;;12513621;28;20048;-35
2023/07/17 07:44:20;;;;;;;7.38;2.83;;;18.40;99.90;;;;;;12513326;28;20912;-35
2023/07/17 07:50:22;;;;;;;5.55;2.50;;;18.60;99.90;;;;;;12502494;28;20080;-34
2023/07/17 07:56:24;;;;;;;6.10;2.78;;;18.60;99.90;;;;;;12507607;28;20520;-34
2023/07/17 08:02:26;;;;;;;6.45;2.50;;;18.10;99.90;;;;;;12515997;28;20045;-35
2023/07/17 08:08:27;;;;;;;5.63;2.75;;;18.10;99.90;;;;;;12495125;28;20132;-35
2023/07/17 08:14:29;;;;;;;5.60;2.15;;;18.20;99.90;;;;;;12510402;28;20065;-36
2023/07/17 08:20:31;;;;;;;7.95;3.00;;;18.50;99.90;;;;;;12520848;28;20497;-35
2023/07/17 08:26:33;;;;;;;6.97;2.95;;;18.80;99.90;;;;;;12522363;28;20049;-34
2023/07/17 08:32:35;;;;;;;7.40;3.35;;;18.90;99.90;;;;;;12515850;28;20501;-35
2023/07/17 08:38:37;;;;;;;5.32;2.97;;;19.00;99.90;;;;;;12523726;28;20061;-35
2023/07/17 08:44:39;;;;;;;4.68;2.88;;;19.30;99.90;;;;;;12519239;28;20045;-35
2023/07/17 08:50:42;;;;;;;4.55;2.80;;;19.40;99.90;;;;;;12510316;28;20041;-35
2023/07/17 08:56:46;;;;;;;5.25;3.25;;;19.60;99.90;;;;;;12515196;28;20052;-35
2023/07/17 09:02:49;;;;;;;5.80;3.00;;;19.70;99.90;;;;;;12517269;28;20306;-35
2023/07/17 09:08:52;;;;;;;5.93;2.83;;;19.90;99.90;;;;;;12515558;28;20415;-35
2023/07/17 09:14:55;;;;;;;5.00;3.00;;;20.00;99.90;;;;;;12496801;28;20053;-36
2023/07/17 09:21:02;;;;;;;8.40;3.25;;;20.30;99.90;;;;;;12517619;28;20040;-36
2023/07/17 09:27:06;;;;;;;8.85;3.20;;;20.60;99.90;;;;;;12483628;28;20423;-36
2023/07/17 09:33:08;;;;;;;7.88;3.20;;;20.80;99.90;;;;;;12518947;28;20060;-36
2023/07/17 09:39:11;;;;;;;7.07;3.58;;;20.90;99.90;;;;;;12528282;28;20060;-36
2023/07/17 09:45:15;;;;;;;6.38;3.10;;;21.10;99.90;;;;;;12501910;28;20072;-36
2023/07/17 09:51:17;;;;;;;5.78;3.22;;;21.60;99.90;;;;;;12505644;28;20084;-36
2023/07/17 09:57:27;;;;;;;9.48;3.40;;;21.40;99.90;;;;;;12509107;28;20131;-36
2023/07/17 10:03:32;;;;;;;7.80;3.75;;;21.20;99.90;;;;;;12494052;28;20497;-37
2023/07/17 10:09:36;;;;;;;7.78;3.55;;;20.80;99.90;;;;;;12504047;28;20049;-36
2023/07/17 10:15:42;;;;;;;6.63;4.00;;;20.30;99.90;;;;;;12528949;28;20078;-36
2023/07/17 10:21:55;;;;;;;7.72;4.20;;;20.30;99.90;;;;;;12526549;28;20099;-36
2023/07/17 10:28:02;;;;;;;8.77;3.95;;;20.60;99.90;;;;;;12508520;28;20041;-35
2023/07/17 10:34:04;;;;;;;7.00;4.30;;;20.70;99.90;;;;;;12513728;28;20421;-35
2023/07/17 10:40:08;;;;;;;8.82;4.50;;;21.40;99.90;;;;;;12513377;28;20429;-35
2023/07/17 10:46:11;;;;;;;7.07;3.92;;;22.20;99.90;;;;;;12489693;28;20402;-35
2023/07/17 10:52:13;;;;;;;8.43;3.53;;;22.60;99.90;;;;;;12498101;28;20120;-36
2023/07/17 10:58:20;;;;;;;7.82;3.10;;;22.70;99.90;;;;;;12501693;28;20058;-36
2023/07/17 11:04:22;;;;;;;7.22;3.10;;;22.30;99.90;;;;;;12496143;28;20049;-35
2023/07/17 11:10:24;;;;;;;9.82;3.28;;;22.20;99.90;;;;;;12483227;28;20051;-35
2023/07/17 11:16:26;;;;;;;8.23;3.50;;;22.30;99.90;;;;;;12514247;28;20133;-36
2023/07/17 11:22:33;;;;;;;5.25;2.63;;;22.00;99.90;;;;;;12487440;28;20076;-35
2023/07/17 11:28:35;;;;;;;3.03;1.73;;;22.50;99.90;;;;;;12493818;28;20045;-36
2023/07/17 11:34:37;;;;;;;4.70;1.98;;;22.20;99.90;;;;;;12516651;28;20484;-36
2023/07/17 11:41:08;;;;;;;5.70;1.90;;;22.60;99.90;;;;;;12498921;28;20056;-35
2023/07/17 11:47:12;;;;;;;7.05;2.13;;;22.80;99.90;;;;;;12520989;28;20454;-35
2023/07/17 11:53:17;;;;;;;4.20;1.60;;;22.90;99.90;;;;;;12513427;28;20037;-36
2023/07/17 11:59:21;;;;;;;3.25;1.60;;;22.60;99.90;;;;;;12513248;28;20080;-36
2023/07/17 12:05:24;;;;;;;3.55;1.83;;;22.70;99.90;;;;;;12507770;28;20080;-35
2023/07/17 12:11:26;;;;;;;5.35;1.33;;;22.60;99.90;;;;;;12510263;28;20044;-35
2023/07/17 12:17:28;;;;;;;4.93;1.42;;;22.30;99.90;;;;;;12521977;28;20502;-35
2023/07/17 12:23:30;;;;;;;4.75;1.50;;;22.30;99.90;;;;;;12510507;28;20044;-35
2023/07/17 12:29:32;;;;;;;6.63;1.80;;;22.80;99.90;;;;;;12511129;28;20481;-35
2023/07/17 12:35:34;;;;;;;3.60;1.70;;;22.60;99.90;;;;;;12533817;28;20049;-35
2023/07/17 12:41:37;;;;;;;;;;;22.30;99.90;;;;;;12505229;28;20095;-35
2023/07/17 12:47:39;;;;;;;4.03;2.00;;;21.60;99.90;;;;;;12535647;28;19920;-35
2023/07/17 12:53:41;;;;;;;5.00;2.50;;;21.50;99.90;;;;;;12507047;28;20118;-35
2023/07/17 12:59:43;;;;;;;4.65;2.10;;;21.20;99.90;;;;;;12496362;28;20057;-34
2023/07/17 13:05:45;;;;;;;3.70;1.88;;;20.80;99.90;;;;;;12514500;28;20042;-35
2023/07/17 13:11:47;;;;;;;5.10;1.67;;;20.70;99.90;;;;;;12523929;28;20041;-35
2023/07/17 13:17:49;;;;;;;4.70;1.90;;;20.70;99.90;;;;;;12522435;28;20084;-35
2023/07/17 13:23:51;;;;;;;3.80;1.65;;;20.70;99.90;;;;;;12529994;28;20045;-36
2023/07/17 13:29:53;;;;;;;6.95;1.80;;;20.70;99.90;;;;;;12510628;28;20076;-34
2023/07/17 13:35:56;;;;;;;5.75;2.00;;;20.70;99.90;;;;;;12538349;28;20203;-36
2023/07/17 13:42:02;;;;;;;4.55;1.70;;;21.30;99.90;;;;;;12523223;28;20052;-36
2023/07/17 13:48:04;;;;;;;5.63;1.65;;;21.50;99.90;;;;;;12520487;28;20041;-35
2023/07/17 13:54:07;;;;;;;4.28;1.85;;;21.90;99.90;;;;;;12521422;28;20501;-35
2023/07/17 14:00:10;;;;;;;5.37;2.10;;;22.40;99.90;;;;;;12519336;28;20382;-35
2023/07/17 14:06:12;;;;;;;4.45;1.85;;;22.70;99.90;;;;;;12487267;28;20056;-35
2023/07/17 14:12:14;;;;;;;3.97;1.70;;;22.60;99.90;;;;;;12503049;28;20041;-35
2023/07/17 14:18:16;;;;;;;3.38;1.50;;;22.40;99.90;;;;;;12500344;28;20045;-35
2023/07/17 14:24:18;;;;;;;4.05;1.70;;;22.80;99.90;;;;;;12521967;28;20057;-35
2023/07/17 14:30:20;;;;;;;4.25;1.48;;;23.00;99.90;;;;;;12515916;28;21345;-35
2023/07/17 14:36:22;;;;;;;4.15;1.40;;;22.50;99.90;;;;;;12525695;28;20056;-35
2023/07/17 14:42:24;;;;;;;3.80;1.92;;;22.40;99.90;;;;;;12512731;28;20144;-35
2023/07/17 14:48:26;;;;;;;4.32;1.42;;;22.40;99.90;;;;;;12508035;28;20040;-35
2023/07/17 14:54:28;;;;;;;3.38;1.70;;;22.70;99.90;;;;;;12522559;28;20053;-34
2023/07/17 15:00:30;;;;;;;4.72;1.58;;;21.30;99.90;;;;;;12506125;28;20095;-35
2023/07/17 15:06:32;;;;;;;3.22;1.80;;;20.70;99.90;;;;;;12501189;28;20059;-35
2023/07/17 15:12:33;;;;;;;3.20;1.42;;;20.80;99.90;;;;;;12515695;28;20045;-36
2023/07/17 15:18:36;;;;;;;4.60;1.60;;;20.30;99.90;;;;;;12518384;28;20045;-36
2023/07/17 15:24:38;;;;;;;4.95;1.80;;;20.20;99.90;;;;;;12509242;28;20061;-35
2023/07/17 15:30:42;;;;;;;4.88;1.75;;;20.00;99.90;;;;;;12521443;28;20056;-35
2023/07/17 15:36:43;;;;;;;5.55;1.60;;;20.20;99.90;;;;;;12522866;28;20466;-35
2023/07/17 15:42:45;;;;;;;5.82;1.95;;;20.60;99.90;;;;;;12504883;28;20049;-35
2023/07/17 15:48:47;;;;;;;3.58;1.20;;;20.60;99.90;;;;;;12516229;28;20572;-36
2023/07/17 15:54:49;;;;;;;5.10;1.73;;;20.60;99.90;;;;;;12523081;28;20067;-35
2023/07/17 16:00:51;;;;;;;2.60;1.48;;;20.50;99.90;;;;;;12513028;28;20518;-35
2023/07/17 16:06:53;;;;;;;5.07;1.63;;;20.10;99.90;;;;;;12504238;28;20045;-35
2023/07/17 16:12:55;;;;;;;5.18;2.10;;;19.60;99.90;;;;;;12510163;28;20040;-35
2023/07/17 16:18:57;;;;;;;4.05;1.75;;;18.60;99.90;;;;;;12511789;28;20091;-36
2023/07/17 16:24:59;;;;;;;5.72;2.17;;;17.80;99.90;;;;;;12513951;28;20517;-34
2023/07/17 16:31:02;;;;;;;6.38;2.15;;;17.70;99.90;;;;;;12508567;28;20049;-35
2023/07/17 16:37:04;;;;;;;5.32;1.90;;;17.50;99.90;;;;;;12528421;28;20053;-35
2023/07/17 16:43:06;;;;;;;8.57;2.72;;;17.80;99.90;;;;;;12514126;28;20071;-35
2023/07/17 16:49:09;;;;;;;6.30;2.10;;;17.40;99.90;;;;;;12523067;28;20175;-35
2023/07/17 16:55:10;;;;;;;2.97;1.08;;;16.30;99.90;;;;;;12505145;28;20042;-35
2023/07/17 17:01:12;;;;;;;3.78;1.48;;;15.40;99.90;;;;;;12512848;28;20046;-35
2023/07/17 17:07:14;;;;;;;7.05;2.08;;;15.20;99.90;;;;;;12506929;28;20049;-35
2023/07/17 17:13:16;;;;;;;14.35;2.03;;;15.60;99.90;;;;;;12513758;28;20408;-36
2023/07/17 17:19:18;;;;;;;5.15;2.10;;;15.90;99.90;;;;;;12506972;28;20052;-35
2023/07/17 17:25:20;;;;;;;8.48;1.90;;;16.20;99.90;;;;;;12514512;28;20505;-35
2023/07/17 17:31:26;;;;;;;6.93;1.92;;;16.10;99.90;;;;;;12524791;28;20078;-35
2023/07/17 17:37:30;;;;;;;7.10;1.83;;;16.00;99.90;;;;;;12527782;28;21133;-35
2023/07/17 17:43:32;;;;;;;3.63;1.65;;;16.00;99.90;;;;;;12510319;28;20053;-35
2023/07/17 17:49:34;;;;;;;6.10;1.77;;;16.00;99.90;;;;;;12521038;28;20048;-35
2023/07/17 17:55:36;;;;;;;2.88;1.63;;;15.90;99.90;;;;;;12531841;28;20508;-35
2023/07/17 18:01:38;;;;;;;3.78;1.75;;;15.80;99.90;;;;;;12514372;28;20052;-35
2023/07/17 18:07:40;;;;;;;2.72;1.42;;;15.60;99.90;;;;;;12530725;28;20064;-36
2023/07/17 18:13:44;;;;;;;3.45;1.65;;;16.00;99.90;;;;;;12524271;28;20041;-35
2023/07/17 18:19:46;;;;;;;2.77;1.70;;;16.10;99.90;;;;;;12518048;28;20044;-35
2023/07/17 18:25:48;;;;;;;5.20;2.33;;;16.30;99.90;;;;;;12527295;28;20049;-35
2023/07/17 18:31:50;;;;;;;4.82;2.20;;;16.10;99.90;;;;;;12502793;28;20080;-35
2023/07/17 18:37:52;;;;;;;3.33;2.17;;;15.90;99.90;;;;;;12528356;28;20053;-35
2023/07/17 18:43:54;;;;;;;4.65;2.13;;;15.80;99.90;;;;;;12506639;28;20049;-35
2023/07/17 18:49:56;;;;;;;7.15;2.58;;;15.60;99.90;;;;;;12508148;28;20049;-35
2023/07/17 18:55:58;;;;;;;5.65;2.00;;;15.50;99.90;;;;;;12513087;28;20045;-35
2023/07/17 19:02:00;;;;;;;5.18;2.50;;;15.50;99.90;;;;;;12512861;28;20140;-35
2023/07/17 19:08:14;;;;;;;8.20;2.50;;;15.40;99.90;;;;;;12509735;28;20052;-34
2023/07/17 19:14:16;;;;;;;;;;;15.20;99.90;;;;;;12507022;28;20092;-35
2023/07/17 19:20:19;;;;;;;5.60;2.30;;;15.30;99.90;;;;;;12518420;28;20284;-35
2023/07/17 19:26:21;;;;;;;7.35;2.80;;;15.30;99.90;;;;;;12503108;28;20053;-35
2023/07/17 19:32:24;;;;;;;6.47;2.55;;;15.60;99.90;;;;;;12513809;28;20405;-35
2023/07/17 19:38:26;;;;;;;5.50;2.75;;;15.60;99.90;;;;;;12505194;28;20515;-35
2023/07/17 19:44:28;;;;;;;6.88;3.13;;;15.40;99.90;;;;;;12510996;28;20052;-35
2023/07/17 19:50:30;;;;;;;6.35;3.00;;;15.10;99.90;;;;;;12514277;28;20081;-35
2023/07/17 19:56:32;;;;;;;5.78;2.78;;;15.10;99.90;;;;;;12507221;28;20087;-35
2023/07/17 20:02:35;;;;;;;4.78;2.90;;;15.20;99.90;;;;;;12502935;28;20052;-35
2023/07/17 20:08:37;;;;;;;5.32;2.65;;;15.20;99.90;;;;;;12529062;28;20496;-35
2023/07/17 20:14:38;;;;;;;5.70;3.38;;;15.00;99.90;;;;;;12511460;28;20068;-35
2023/07/17 20:20:41;;;;;;;5.78;3.10;;;15.10;99.90;;;;;;12505231;28;20048;-35
2023/07/17 20:26:43;;;;;;;6.13;2.78;;;14.90;99.90;;;;;;12506186;28;20132;-34
2023/07/17 20:32:45;;;;;;;5.40;3.10;;;15.00;99.90;;;;;;12520673;28;20125;-35
2023/07/17 20:38:48;;;;;;;5.57;2.95;;;14.80;99.90;;;;;;12521703;28;20049;-35
2023/07/17 20:44:49;;;;;;;8.05;3.25;;;14.90;99.90;;;;;;12511969;28;20038;-35
2023/07/17 20:51:13;;;;;;;6.40;3.15;;;14.70;99.90;;;;;;12522163;28;20052;-35
2023/07/17 20:57:15;;;;;;;7.40;3.20;;;14.60;99.90;;;;;;12514220;28;20559;-35
2023/07/17 21:03:18;;;;;;;7.85;3.55;;;14.40;99.90;;;;;;12517985;28;20382;-35
2023/07/17 21:09:20;;;;;;;8.10;3.42;;;14.40;99.90;;;;;;12518794;28;20049;-35
2023/07/17 21:15:22;;;;;;;9.65;3.35;;;14.30;99.90;;;;;;12512462;28;20103;-35
2023/07/17 21:21:24;;;;;;;10.38;3.70;;;14.40;99.90;;;;;;12526646;28;20056;-35
2023/07/17 21:27:26;;;;;;;7.95;3.40;;;14.30;99.90;;;;;;12532898;28;20048;-35
2023/07/17 21:33:28;;;;;;;8.40;3.45;;;14.20;99.90;;;;;;12511759;28;20440;-34
2023/07/17 21:39:30;;;;;;;8.20;3.08;;;14.20;99.90;;;;;;12507878;28;20072;-35
2023/07/17 21:45:32;;;;;;;6.90;3.60;;;14.10;99.90;;;;;;12506738;28;20049;-35
2023/07/17 21:51:34;;;;;;;6.20;3.28;;;14.10;99.90;;;;;;12520291;28;20073;-35
2023/07/17 21:57:36;;;;;;;5.93;3.70;;;14.10;99.90;;;;;;12517176;28;20049;-35
2023/07/17 22:03:38;;;;;;;7.22;3.38;;;14.20;99.90;;;;;;12508370;28;20576;-35
2023/07/17 22:09:40;;;;;;;6.25;3.45;;;14.20;99.90;;;;;;12507032;28;20453;-35
2023/07/17 22:15:43;;;;;;;8.30;3.80;;;14.20;99.90;;;;;;12510124;28;20084;-37
2023/07/17 22:21:47;;;;;;;5.68;3.17;;;14.40;99.90;;;;;;12514149;28;20099;-35
2023/07/17 22:27:49;;;;;;;8.38;3.33;;;14.60;99.90;;;;;;12496787;28;20053;-35
2023/07/17 22:33:51;;;;;;;10.18;3.88;;;14.50;99.90;;;;;;12519717;28;20049;-35
2023/07/17 22:39:53;;;;;;;7.90;3.13;;;14.50;99.90;;;;;;12507020;28;20057;-34
2023/07/17 22:45:55;;;;;;;6.47;3.67;;;14.50;99.90;;;;;;12510640;28;20680;-35
2023/07/17 22:51:59;;;;;;;10.45;4.50;;;14.20;99.90;;;;;;12516221;28;20076;-35
2023/07/17 22:58:01;;;;;;;14.63;3.97;;;14.10;99.90;;;;;;12500218;28;20413;-34
2023/07/17 23:04:03;;;;;;;8.60;4.15;;;14.10;99.90;;;;;;12510618;28;20049;-34
2023/07/17 23:10:10;;;;;;;7.60;3.70;;;14.10;99.90;;;;;;12518540;28;20045;-34
2023/07/17 23:16:12;;;;;;;10.45;3.85;;;14.10;99.90;;;;;;12499986;28;20048;-35
2023/07/17 23:22:16;;;;;;;7.65;4.25;;;14.10;99.90;;;;;;12511684;28;20409;-35
2023/07/17 23:28:18;;;;;;;9.90;4.82;;;14.00;99.90;;;;;;12502926;28;20383;-35
2023/07/17 23:34:20;;;;;;;9.45;4.07;;;14.00;99.90;;;;;;12509277;28;20489;-35
2023/07/17 23:40:22;;;;;;;11.20;4.75;;;13.90;99.90;;;;;;12508116;28;20191;-35
2023/07/17 23:46:26;;;;;;;10.20;4.70;;;13.90;99.90;;;;;;12515729;28;20045;-34
2023/07/17 23:52:29;;;;;;;13.35;4.90;;;13.90;99.90;;;;;;12515507;28;20041;-34
2023/07/17 23:58:32;;;;;;;13.40;5.28;;;13.90;99.90;;;;;;12509085;28;20180;-35
